Time;durP1;ratioP1;P1;durP2;ratioP2;P2;SDS_P1;SDS_P2;PMS_P1;PMS_P2;Temp;Humidity;BMP_temperature;BMP_pressure;BME280_temperature;BME280_humidity;BME280_pressure;Samples;Min_cycle;Max_cycle;Signal;HPM_P1;HPM_P2
2023/10/26 00:00:25;;;;;;;7.85;3.80;;;;;;;;;;4882471;29;20224;-82
2023/10/26 00:02:51;;;;;;;7.00;4.20;;;;;;;;;;4881613;29;20032;-80
2023/10/26 00:05:17;;;;;;;6.72;3.95;;;;;;;;;;4883742;29;20258;-82
2023/10/26 00:07:42;;;;;;;7.65;3.85;;;;;;;;;;4891959;29;20324;-80
2023/10/26 00:10:08;;;;;;;8.48;3.80;;;;;;;;;;4884644;29;20033;-82
2023/10/26 00:12:33;;;;;;;6.13;3.78;;;;;;;;;;4883780;29;20031;-82
2023/10/26 00:15:00;;;;;;;6.10;3.50;;;;;;;;;;4880274;29;20061;-82
2023/10/26 00:17:26;;;;;;;5.30;3.30;;;;;;;;;;4873584;29;20025;-81
2023/10/26 00:19:54;;;;;;;6.40;3.45;;;;;;;;;;4887031;29;20107;-81
2023/10/26 00:22:23;;;;;;;7.65;3.72;;;;;;;;;;4886088;29;20036;-81
2023/10/26 00:24:50;;;;;;;5.97;3.50;;;;;;;;;;4874696;29;20045;-82
2023/10/26 00:27:15;;;;;;;6.55;3.53;;;;;;;;;;4881870;29;20340;-84
2023/10/26 00:29:41;;;;;;;5.65;3.60;;;;;;;;;;4862781;29;20534;-83
2023/10/26 00:32:07;;;;;;;9.30;3.95;;;;;;;;;;4887028;29;20039;-83
2023/10/26 00:34:33;;;;;;;7.35;3.60;;;;;;;;;;4878261;29;20033;-83
2023/10/26 00:36:58;;;;;;;9.02;3.47;;;;;;;;;;4886783;29;20368;-83
2023/10/26 00:39:24;;;;;;;8.15;3.97;;;;;;;;;;4886012;29;20037;-83
2023/10/26 00:41:54;;;;;;;4.72;3.30;;;;;;;;;;4879721;29;20108;-80
2023/10/26 00:44:20;;;;;;;5.68;3.55;;;;;;;;;;4892258;29;20316;-83
2023/10/26 00:46:47;;;;;;;6.00;3.72;;;;;;;;;;4879121;29;20111;-82
2023/10/26 00:49:15;;;;;;;6.25;3.78;;;;;;;;;;4887297;29;20109;-82
2023/10/26 00:51:44;;;;;;;7.57;3.80;;;;;;;;;;4874404;29;20092;-83
2023/10/26 00:54:10;;;;;;;6.50;3.72;;;;;;;;;;4863235;29;20037;-83
2023/10/26 00:56:36;;;;;;;9.80;4.10;;;;;;;;;;4877604;29;20028;-82
2023/10/26 00:59:03;;;;;;;7.10;3.97;;;;;;;;;;4872960;29;20590;-81
2023/10/26 01:01:30;;;;;;;5.75;3.92;;;;;;;;;;4876187;29;20438;-82
2023/10/26 01:03:56;;;;;;;7.15;3.80;;;;;;;;;;4868330;29;20667;-80
2023/10/26 01:06:22;;;;;;;10.35;3.92;;;;;;;;;;4869600;29;20486;-82
2023/10/26 01:08:47;;;;;;;6.93;3.72;;;;;;;;;;4871268;29;20056;-82
2023/10/26 01:11:14;;;;;;;6.00;3.65;;;;;;;;;;4874282;29;20036;-82
2023/10/26 01:13:40;;;;;;;7.45;3.65;;;;;;;;;;4875166;29;20064;-82
2023/10/26 01:16:06;;;;;;;6.40;3.92;;;;;;;;;;4869434;29;20495;-83
2023/10/26 01:18:32;;;;;;;6.15;3.63;;;;;;;;;;4875150;29;20052;-82
2023/10/26 01:20:57;;;;;;;8.55;4.07;;;;;;;;;;4875047;29;20045;-81
2023/10/26 01:23:22;;;;;;;7.68;3.92;;;;;;;;;;4874849;29;20041;-82
2023/10/26 01:25:53;;;;;;;7.05;4.20;;;;;;;;;;4877738;29;20060;-81
2023/10/26 01:28:19;;;;;;;5.50;3.72;;;;;;;;;;4879243;29;20059;-82
2023/10/26 01:30:44;;;;;;;6.03;3.80;;;;;;;;;;4870550;29;20597;-82
2023/10/26 01:33:09;;;;;;;6.25;3.92;;;;;;;;;;4875324;29;20105;-81
2023/10/26 01:35:38;;;;;;;6.57;4.00;;;;;;;;;;4877426;29;20479;-81
2023/10/26 01:38:04;;;;;;;11.15;3.70;;;;;;;;;;4870785;29;20048;-84
2023/10/26 01:40:29;;;;;;;7.80;4.00;;;;;;;;;;4870584;29;20436;-85
2023/10/26 01:42:54;;;;;;;9.15;4.35;;;;;;;;;;4877456;29;20587;-84
2023/10/26 01:45:20;;;;;;;8.50;4.00;;;;;;;;;;4877547;29;20033;-84
2023/10/26 01:47:46;;;;;;;11.45;4.00;;;;;;;;;;4883156;29;20068;-85
2023/10/26 01:50:11;;;;;;;5.68;3.78;;;;;;;;;;4868248;29;20383;-85
2023/10/26 01:52:36;;;;;;;6.90;3.58;;;;;;;;;;4881774;29;20029;-84
2023/10/26 01:55:02;;;;;;;9.02;3.97;;;;;;;;;;4882469;29;20473;-84
2023/10/26 01:57:27;;;;;;;7.15;4.00;;;;;;;;;;4880038;29;20305;-85
2023/10/26 01:59:55;;;;;;;8.30;4.15;;;;;;;;;;4881936;29;20386;-86
2023/10/26 02:02:21;;;;;;;7.15;4.45;;;;;;;;;;4890098;29;20060;-85
2023/10/26 02:04:46;;;;;;;10.35;4.68;;;;;;;;;;4888609;29;20028;-86
2023/10/26 02:07:11;;;;;;;9.40;4.90;;;;;;;;;;4887332;29;20109;-86
2023/10/26 02:09:37;;;;;;;6.50;4.63;;;;;;;;;;4888666;29;20040;-84
2023/10/26 02:12:02;;;;;;;9.60;4.93;;;;;;;;;;4886477;29;20064;-80
2023/10/26 02:14:27;;;;;;;11.05;5.70;;;;;;;;;;4871773;29;20040;-84
2023/10/26 02:16:53;;;;;;;9.52;4.88;;;;;;;;;;4890198;29;20039;-83
2023/10/26 02:19:18;;;;;;;6.78;4.78;;;;;;;;;;4885359;29;20037;-82
2023/10/26 02:21:43;;;;;;;9.38;5.15;;;;;;;;;;4883247;29;20052;-80
2023/10/26 02:24:09;;;;;;;7.13;4.57;;;;;;;;;;4888476;29;20021;-79
2023/10/26 02:26:34;;;;;;;9.05;4.75;;;;;;;;;;4888911;29;20044;-81
2023/10/26 02:28:59;;;;;;;8.20;4.78;;;;;;;;;;4888948;29;20078;-80
2023/10/26 02:31:25;;;;;;;8.07;4.95;;;;;;;;;;4888528;29;20049;-80
2023/10/26 02:33:50;;;;;;;9.10;4.68;;;;;;;;;;4887599;29;20052;-80
2023/10/26 02:36:15;;;;;;;7.85;4.65;;;;;;;;;;4876745;29;20017;-81
2023/10/26 02:38:41;;;;;;;7.47;4.93;;;;;;;;;;4889005;29;20021;-80
2023/10/26 02:41:07;;;;;;;9.43;4.70;;;;;;;;;;4885764;29;20128;-79
2023/10/26 02:43:32;;;;;;;8.63;4.50;;;;;;;;;;4887523;29;20242;-79
2023/10/26 02:46:04;;;;;;;9.10;4.80;;;;;;;;;;4886659;29;20041;-80
2023/10/26 02:48:30;;;;;;;7.60;4.60;;;;;;;;;;4886465;29;20100;-80
2023/10/26 02:50:55;;;;;;;7.22;4.80;;;;;;;;;;4876758;29;20041;-79
2023/10/26 02:53:20;;;;;;;7.10;4.90;;;;;;;;;;4885540;29;20060;-79
2023/10/26 02:55:46;;;;;;;6.32;4.55;;;;;;;;;;4886507;29;20032;-82
2023/10/26 02:58:11;;;;;;;6.40;4.63;;;;;;;;;;4888030;29;20368;-81
2023/10/26 03:00:36;;;;;;;6.20;4.40;;;;;;;;;;4886360;29;20077;-80
2023/10/26 03:03:02;;;;;;;7.60;4.75;;;;;;;;;;4886124;29;20048;-79
2023/10/26 03:05:27;;;;;;;7.53;4.65;;;;;;;;;;4887987;29;20073;-81
2023/10/26 03:07:52;;;;;;;6.28;4.20;;;;;;;;;;4886115;29;20044;-80
2023/10/26 03:10:18;;;;;;;5.85;4.10;;;;;;;;;;4889353;29;20093;-81
2023/10/26 03:12:46;;;;;;;6.28;4.20;;;;;;;;;;4884976;29;20041;-79
2023/10/26 03:15:12;;;;;;;8.55;4.47;;;;;;;;;;4887573;29;20037;-78
2023/10/26 03:17:37;;;;;;;6.25;4.18;;;;;;;;;;4887258;29;20037;-79
2023/10/26 03:20:05;;;;;;;6.93;4.30;;;;;;;;;;4886712;29;20049;-80
2023/10/26 03:22:31;;;;;;;6.30;4.20;;;;;;;;;;4888390;29;20068;-82
2023/10/26 03:24:57;;;;;;;7.07;3.95;;;;;;;;;;4887441;29;20088;-80
2023/10/26 03:27:22;;;;;;;5.90;4.10;;;;;;;;;;4888398;29;20060;-81
2023/10/26 03:29:47;;;;;;;7.93;4.15;;;;;;;;;;4887619;29;20056;-81
2023/10/26 03:32:13;;;;;;;6.50;3.78;;;;;;;;;;4886728;29;20646;-81
2023/10/26 03:34:38;;;;;;;6.57;3.75;;;;;;;;;;4886157;29;20045;-80
2023/10/26 03:37:04;;;;;;;5.78;3.55;;;;;;;;;;4887794;29;20041;-82
2023/10/26 03:39:29;;;;;;;5.57;3.70;;;;;;;;;;4887338;29;20104;-79
2023/10/26 03:41:55;;;;;;;5.75;3.80;;;;;;;;;;4885049;29;20041;-80
2023/10/26 03:44:20;;;;;;;5.40;3.72;;;;;;;;;;4887319;29;20077;-78
2023/10/26 03:46:46;;;;;;;5.60;3.90;;;;;;;;;;4887538;29;20044;-81
2023/10/26 03:49:12;;;;;;;5.60;3.78;;;;;;;;;;4886482;29;20406;-79
2023/10/26 03:51:37;;;;;;;6.90;4.50;;;;;;;;;;4887123;29;20025;-78
2023/10/26 03:54:03;;;;;;;9.65;4.57;;;;;;;;;;4887681;29;20339;-81
2023/10/26 03:56:29;;;;;;;7.95;4.68;;;;;;;;;;4886721;29;20037;-81
2023/10/26 03:58:54;;;;;;;8.27;5.10;;;;;;;;;;4884483;29;20232;-79
2023/10/26 04:01:20;;;;;;;7.97;5.13;;;;;;;;;;4885972;29;20041;-80
2023/10/26 04:03:45;;;;;;;9.10;5.05;;;;;;;;;;4886560;29;20033;-81
2023/10/26 04:06:11;;;;;;;9.13;5.70;;;;;;;;;;4886195;29;20190;-79
2023/10/26 04:08:39;;;;;;;10.55;5.80;;;;;;;;;;4887615;29;20025;-78
2023/10/26 04:11:05;;;;;;;10.30;5.72;;;;;;;;;;4886388;29;20205;-78
2023/10/26 04:13:30;;;;;;;10.50;6.00;;;;;;;;;;4886264;29;20029;-79
2023/10/26 04:16:00;;;;;;;9.32;6.00;;;;;;;;;;4885539;29;20037;-78
2023/10/26 04:18:27;;;;;;;11.43;6.15;;;;;;;;;;4885050;29;20048;-78
2023/10/26 04:20:53;;;;;;;10.45;5.95;;;;;;;;;;4884838;29;20052;-78
2023/10/26 04:23:18;;;;;;;9.13;6.13;;;;;;;;;;4884550;29;20324;-79
2023/10/26 04:25:44;;;;;;;9.13;5.85;;;;;;;;;;4885647;29;20032;-78
2023/10/26 04:28:09;;;;;;;10.05;6.28;;;;;;;;;;4885085;29;20048;-79
2023/10/26 04:30:34;;;;;;;8.95;5.78;;;;;;;;;;4886088;29;20081;-78
2023/10/26 04:33:00;;;;;;;8.15;5.63;;;;;;;;;;4886398;29;20045;-78
2023/10/26 04:35:25;;;;;;;8.05;5.60;;;;;;;;;;4886419;29;20141;-79
2023/10/26 04:37:52;;;;;;;8.50;5.53;;;;;;;;;;4886815;29;20103;-78
2023/10/26 04:40:17;;;;;;;10.35;5.55;;;;;;;;;;4885063;29;20048;-79
2023/10/26 04:42:43;;;;;;;10.07;5.28;;;;;;;;;;4886634;29;20445;-79
2023/10/26 04:45:08;;;;;;;8.32;5.40;;;;;;;;;;4885464;29;20240;-78
2023/10/26 04:47:34;;;;;;;9.98;4.95;;;;;;;;;;4886491;29;20021;-78
2023/10/26 04:49:59;;;;;;;7.93;5.32;;;;;;;;;;4885609;29;20033;-79
2023/10/26 04:52:24;;;;;;;7.68;4.80;;;;;;;;;;4878598;29;20060;-79
2023/10/26 04:54:50;;;;;;;7.80;4.85;;;;;;;;;;4881673;29;20036;-78
2023/10/26 04:57:15;;;;;;;10.40;4.90;;;;;;;;;;4884549;29;20097;-79
2023/10/26 04:59:41;;;;;;;8.10;4.50;;;;;;;;;;4883565;29;20079;-79
2023/10/26 05:02:06;;;;;;;7.43;4.65;;;;;;;;;;4881425;29;20045;-79
2023/10/26 05:04:31;;;;;;;6.18;4.10;;;;;;;;;;4885470;29;20341;-78
2023/10/26 05:06:57;;;;;;;5.63;3.88;;;;;;;;;;4885301;29;20313;-79
2023/10/26 05:09:22;;;;;;;6.13;4.10;;;;;;;;;;4885771;29;20324;-79
2023/10/26 05:11:47;;;;;;;5.57;3.95;;;;;;;;;;4885775;29;20277;-79
2023/10/26 05:14:13;;;;;;;5.68;3.75;;;;;;;;;;4885097;29;20055;-78
2023/10/26 05:16:38;;;;;;;7.13;3.60;;;;;;;;;;4885436;29;20220;-79
2023/10/26 05:19:04;;;;;;;6.03;3.58;;;;;;;;;;4885080;29;20045;-79
2023/10/26 05:21:29;;;;;;;5.70;3.55;;;;;;;;;;4884527;29;20136;-80
2023/10/26 05:23:55;;;;;;;6.15;3.40;;;;;;;;;;4886044;29;20337;-79
2023/10/26 05:26:20;;;;;;;6.93;3.35;;;;;;;;;;4885808;29;20033;-79
2023/10/26 05:28:46;;;;;;;5.82;3.25;;;;;;;;;;4885956;29;20114;-78
2023/10/26 05:31:11;;;;;;;6.35;3.40;;;;;;;;;;4886079;29;20105;-79
2023/10/26 05:33:37;;;;;;;5.85;3.97;;;;;;;;;;4885784;29;20032;-79
2023/10/26 05:36:03;;;;;;;6.88;3.90;;;;;;;;;;4884410;29;20098;-78
2023/10/26 05:38:29;;;;;;;7.07;3.67;;;;;;;;;;4883241;29;20037;-78
2023/10/26 05:40:55;;;;;;;5.35;3.47;;;;;;;;;;4891335;29;20433;-78
2023/10/26 05:43:22;;;;;;;8.00;4.00;;;;;;;;;;4885318;29;20032;-78
2023/10/26 05:45:47;;;;;;;5.72;3.65;;;;;;;;;;4873742;29;20052;-78
2023/10/26 05:48:12;;;;;;;6.97;4.00;;;;;;;;;;4883132;29;20096;-78
2023/10/26 05:50:41;;;;;;;7.75;4.20;;;;;;;;;;4885370;29;20043;-78
2023/10/26 05:53:08;;;;;;;8.50;3.80;;;;;;;;;;4879150;29;20145;-78
2023/10/26 05:55:34;;;;;;;6.85;3.88;;;;;;;;;;4879875;29;20033;-79
2023/10/26 05:57:59;;;;;;;6.05;3.28;;;;;;;;;;4882271;29;20033;-80
2023/10/26 06:00:25;;;;;;;6.38;2.78;;;;;;;;;;4880747;29;20041;-80
2023/10/26 06:02:51;;;;;;;4.78;2.85;;;;;;;;;;4886461;29;20135;-83
2023/10/26 06:05:17;;;;;;;4.25;2.53;;;;;;;;;;4879491;29;20100;-80
2023/10/26 06:07:42;;;;;;;5.95;2.40;;;;;;;;;;4875970;29;20052;-80
2023/10/26 06:10:09;;;;;;;5.22;2.53;;;;;;;;;;4882424;29;20044;-83
2023/10/26 06:12:35;;;;;;;5.03;2.40;;;;;;;;;;4882120;29;20108;-77
2023/10/26 06:15:00;;;;;;;3.65;2.05;;;;;;;;;;4886224;29;20115;-79
2023/10/26 06:17:26;;;;;;;3.70;2.20;;;;;;;;;;4890009;29;20116;-79
2023/10/26 06:19:51;;;;;;;2.75;1.70;;;;;;;;;;4871855;29;20049;-82
2023/10/26 06:22:17;;;;;;;2.40;1.50;;;;;;;;;;4874367;29;20028;-80
2023/10/26 06:24:44;;;;;;;2.35;1.25;;;;;;;;;;4873884;29;20385;-81
2023/10/26 06:27:09;;;;;;;1.52;1.10;;;;;;;;;;4875652;29;20035;-82
2023/10/26 06:29:34;;;;;;;5.90;1.33;;;;;;;;;;4861244;29;20048;-82
2023/10/26 06:32:00;;;;;;;8.02;1.58;;;;;;;;;;4874980;29;20048;-88
2023/10/26 06:34:25;;;;;;;9.02;1.40;;;;;;;;;;4877844;29;20092;-87
2023/10/26 06:36:50;;;;;;;10.95;1.73;;;;;;;;;;4878422;29;20585;-85
2023/10/26 06:39:16;;;;;;;10.25;1.60;;;;;;;;;;4877253;29;20028;-88
2023/10/26 06:41:41;;;;;;;9.48;1.90;;;;;;;;;;4884148;29;20029;-87
2023/10/26 06:44:07;;;;;;;18.17;2.15;;;;;;;;;;4879688;29;20033;-86
2023/10/26 06:46:32;;;;;;;9.90;1.90;;;;;;;;;;4895213;29;20060;-82
2023/10/26 06:48:57;;;;;;;11.40;1.85;;;;;;;;;;4885390;29;20040;-79
2023/10/26 06:51:23;;;;;;;11.55;1.85;;;;;;;;;;4877213;29;20107;-84
2023/10/26 06:53:48;;;;;;;12.07;2.25;;;;;;;;;;4893272;29;20556;-83
2023/10/26 06:56:13;;;;;;;11.77;1.90;;;;;;;;;;4889978;29;20024;-82
2023/10/26 06:58:39;;;;;;;11.77;2.10;;;;;;;;;;4867327;29;20049;-84
2023/10/26 07:01:09;;;;;;;11.10;2.00;;;;;;;;;;4871492;29;20097;-82
2023/10/26 07:03:35;;;;;;;13.43;2.25;;;;;;;;;;4868178;29;20034;-83
2023/10/26 07:06:04;;;;;;;11.48;1.80;;;;;;;;;;4877156;29;20035;-80
2023/10/26 07:08:31;;;;;;;11.23;1.98;;;;;;;;;;4874205;29;20068;-81
2023/10/26 07:10:56;;;;;;;19.90;2.20;;;;;;;;;;4877477;29;20112;-82
2023/10/26 07:13:21;;;;;;;13.32;2.30;;;;;;;;;;4880103;29;20092;-82
2023/10/26 07:15:47;;;;;;;12.18;2.13;;;;;;;;;;4887250;29;20317;-80
2023/10/26 07:18:15;;;;;;;11.35;2.30;;;;;;;;;;4886735;29;20284;-87
2023/10/26 07:20:40;;;;;;;14.18;2.13;;;;;;;;;;4892619;29;20059;-81
2023/10/26 07:23:06;;;;;;;11.82;2.05;;;;;;;;;;4901357;29;20037;-81
2023/10/26 07:25:34;;;;;;;11.35;2.17;;;;;;;;;;4886651;29;20213;-85
2023/10/26 07:27:59;;;;;;;17.25;2.65;;;;;;;;;;4886660;29;20036;-82
2023/10/26 07:30:24;;;;;;;15.30;2.38;;;;;;;;;;4885905;29;20041;-83
2023/10/26 07:32:50;;;;;;;15.60;2.33;;;;;;;;;;4886607;29;20029;-84
2023/10/26 07:35:15;;;;;;;14.20;2.20;;;;;;;;;;4886854;29;20080;-83
2023/10/26 07:37:42;;;;;;;17.33;2.75;;;;;;;;;;4886709;29;20044;-86
2023/10/26 07:40:08;;;;;;;13.65;2.25;;;;;;;;;;4885198;29;20104;-82
2023/10/26 07:42:34;;;;;;;16.05;2.33;;;;;;;;;;4886268;29;20032;-85
2023/10/26 07:44:59;;;;;;;17.70;2.50;;;;;;;;;;4885979;29;20180;-81
2023/10/26 07:47:25;;;;;;;17.17;2.45;;;;;;;;;;4877227;29;20060;-81
2023/10/26 07:49:50;;;;;;;17.20;2.25;;;;;;;;;;4876435;29;20035;-80
2023/10/26 07:52:15;;;;;;;20.92;2.78;;;;;;;;;;4876651;29;20037;-83
2023/10/26 07:54:41;;;;;;;18.38;3.08;;;;;;;;;;4876176;29;20381;-81
2023/10/26 07:57:06;;;;;;;17.20;2.78;;;;;;;;;;4875115;29;20089;-79
2023/10/26 07:59:32;;;;;;;21.45;3.45;;;;;;;;;;4875486;29;20029;-81
2023/10/26 08:01:57;;;;;;;12.90;2.85;;;;;;;;;;4876894;29;20033;-80
2023/10/26 08:04:23;;;;;;;18.10;2.78;;;;;;;;;;4875877;29;20025;-84
2023/10/26 08:06:48;;;;;;;16.98;3.17;;;;;;;;;;4875791;29;20031;-80
2023/10/26 08:09:13;;;;;;;18.42;3.00;;;;;;;;;;4875632;29;20029;-81
2023/10/26 08:11:39;;;;;;;17.92;2.78;;;;;;;;;;4875914;29;20033;-79
2023/10/26 08:14:05;;;;;;;21.38;3.13;;;;;;;;;;4876003;29;20064;-81
2023/10/26 08:16:30;;;;;;;15.80;2.30;;;;;;;;;;4875852;29;20031;-82
2023/10/26 08:18:56;;;;;;;16.90;3.05;;;;;;;;;;4875211;29;20663;-80
2023/10/26 08:21:22;;;;;;;16.75;2.70;;;;;;;;;;4876363;29;20043;-81
2023/10/26 08:23:47;;;;;;;15.82;2.20;;;;;;;;;;4875991;29;20119;-80
2023/10/26 08:26:12;;;;;;;16.40;2.85;;;;;;;;;;4875425;29;20032;-84
2023/10/26 08:28:38;;;;;;;16.60;2.30;;;;;;;;;;4875557;29;20406;-82
2023/10/26 08:31:05;;;;;;;13.23;3.03;;;;;;;;;;4866404;29;20466;-82
2023/10/26 08:33:31;;;;;;;15.98;2.58;;;;;;;;;;4875412;29;20663;-81
2023/10/26 08:35:57;;;;;;;11.40;2.42;;;;;;;;;;4876335;29;20068;-84
2023/10/26 08:38:23;;;;;;;12.48;2.15;;;;;;;;;;4876015;29;20032;-81
2023/10/26 08:40:52;;;;;;;13.32;2.20;;;;;;;;;;4876176;29;20120;-82
2023/10/26 08:43:18;;;;;;;17.05;2.72;;;;;;;;;;4875805;29;20112;-80
2023/10/26 08:45:45;;;;;;;14.73;2.05;;;;;;;;;;4875255;29;20029;-84
2023/10/26 08:48:14;;;;;;;15.85;2.25;;;;;;;;;;4874219;29;20060;-82
2023/10/26 08:50:40;;;;;;;16.63;2.67;;;;;;;;;;4875909;29;20029;-85
2023/10/26 08:53:05;;;;;;;12.95;2.40;;;;;;;;;;4875494;29;20375;-85
2023/10/26 08:55:30;;;;;;;13.70;2.22;;;;;;;;;;4875892;29;20035;-81
2023/10/26 08:58:00;;;;;;;16.27;2.38;;;;;;;;;;4875003;29;20044;-82
2023/10/26 09:00:29;;;;;;;20.73;2.55;;;;;;;;;;4871894;29;20052;-81
2023/10/26 09:02:54;;;;;;;15.80;2.40;;;;;;;;;;4874933;29;20100;-80
2023/10/26 09:05:20;;;;;;;19.67;2.92;;;;;;;;;;4875706;29;20502;-82
2023/10/26 09:07:45;;;;;;;16.73;2.70;;;;;;;;;;4875519;29;20104;-84
2023/10/26 09:10:11;;;;;;;17.70;2.40;;;;;;;;;;4858675;29;20086;-85
2023/10/26 09:12:36;;;;;;;15.60;2.40;;;;;;;;;;4876331;29;20056;-85
2023/10/26 09:15:06;;;;;;;16.52;2.60;;;;;;;;;;4881468;29;20048;-85
2023/10/26 09:17:33;;;;;;;18.52;2.72;;;;;;;;;;4885315;29;20666;-85
2023/10/26 09:20:13;;;;;;;18.52;2.85;;;;;;;;;;4885946;29;20697;-83
2023/10/26 09:22:39;;;;;;;15.35;3.03;;;;;;;;;;4886399;29;20025;-85
2023/10/26 09:25:09;;;;;;;20.73;2.72;;;;;;;;;;4886332;29;20063;-85
2023/10/26 09:27:35;;;;;;;19.65;3.13;;;;;;;;;;4885939;29;20156;-83
2023/10/26 09:30:01;;;;;;;18.73;2.65;;;;;;;;;;4886353;29;20044;-82
2023/10/26 09:32:32;;;;;;;22.55;3.05;;;;;;;;;;4886121;29;20028;-84
2023/10/26 09:34:59;;;;;;;24.08;3.22;;;;;;;;;;4886553;29;20029;-86
2023/10/26 09:37:24;;;;;;;17.52;2.53;;;;;;;;;;4885729;29;20045;-83
2023/10/26 09:39:52;;;;;;;22.05;2.90;;;;;;;;;;4885319;29;20069;-81
2023/10/26 09:42:19;;;;;;;16.10;2.65;;;;;;;;;;4868566;29;20033;-82
2023/10/26 09:44:45;;;;;;;22.13;4.03;;;;;;;;;;4884508;29;20079;-83
2023/10/26 09:47:11;;;;;;;16.83;2.45;;;;;;;;;;4857906;29;20325;-84
2023/10/26 09:49:36;;;;;;;19.80;2.67;;;;;;;;;;4883183;29;20363;-80
2023/10/26 09:52:02;;;;;;;11.85;2.40;;;;;;;;;;4871183;29;20030;-81
2023/10/26 09:54:33;;;;;;;12.23;2.28;;;;;;;;;;4883868;29;20041;-81
2023/10/26 09:57:04;;;;;;;21.58;2.75;;;;;;;;;;4869714;29;20055;-81
2023/10/26 09:59:30;;;;;;;16.75;2.45;;;;;;;;;;4866163;29;20068;-83
2023/10/26 10:01:56;;;;;;;16.38;2.70;;;;;;;;;;4880610;29;20024;-81
2023/10/26 10:04:37;;;;;;;14.05;2.25;;;;;;;;;;4888913;29;20273;-81
2023/10/26 10:07:03;;;;;;;16.27;2.58;;;;;;;;;;4886838;29;20036;-80
2023/10/26 10:09:29;;;;;;;16.35;2.75;;;;;;;;;;4889436;29;20096;-80
2023/10/26 10:12:03;;;;;;;17.20;2.53;;;;;;;;;;4875833;29;20044;-81
2023/10/26 10:14:47;;;;;;;18.42;2.60;;;;;;;;;;4888588;29;20033;-82
2023/10/26 10:17:13;;;;;;;16.63;2.53;;;;;;;;;;4888365;29;20040;-80
2023/10/26 10:19:43;;;;;;;19.23;2.70;;;;;;;;;;4874513;29;20311;-82
2023/10/26 10:22:39;;;;;;;15.10;2.90;;;;;;;;;;4878719;29;20044;-79
2023/10/26 10:25:09;;;;;;;13.52;2.90;;;;;;;;;;4883942;29;20073;-79
2023/10/26 10:27:36;;;;;;;17.63;2.70;;;;;;;;;;4875135;29;20206;-80
2023/10/26 10:30:08;;;;;;;18.65;2.85;;;;;;;;;;4865661;29;20236;-80
2023/10/26 10:32:42;;;;;;;19.33;2.80;;;;;;;;;;4883931;29;20033;-80
2023/10/26 10:35:08;;;;;;;17.45;2.72;;;;;;;;;;4886168;29;20052;-81
2023/10/26 10:37:33;;;;;;;15.05;2.45;;;;;;;;;;4881256;29;20558;-83
2023/10/26 10:40:08;;;;;;;23.70;3.40;;;;;;;;;;4890831;29;20256;-81
2023/10/26 10:42:34;;;;;;;16.75;2.60;;;;;;;;;;4884314;29;20033;-82
2023/10/26 10:45:02;;;;;;;11.95;2.45;;;;;;;;;;4887287;29;20064;-82
2023/10/26 10:47:28;;;;;;;12.20;2.50;;;;;;;;;;4885028;29;20045;-83
2023/10/26 10:50:15;;;;;;;14.95;2.70;;;;;;;;;;4878107;29;20029;-84
2023/10/26 10:52:50;;;;;;;18.45;2.58;;;;;;;;;;4877923;29;20486;-83
2023/10/26 10:55:26;;;;;;;18.55;2.70;;;;;;;;;;4862621;29;20029;-80
2023/10/26 10:57:56;;;;;;;16.02;3.05;;;;;;;;;;4878152;29;20043;-80
2023/10/26 11:00:48;;;;;;;19.08;2.95;;;;;;;;;;4878341;29;20084;-81
2023/10/26 11:03:21;;;;;;;14.38;2.40;;;;;;;;;;4858014;29;20602;-82
2023/10/26 11:05:46;;;;;;;20.85;2.85;;;;;;;;;;4876625;29;20081;-83
2023/10/26 11:08:12;;;;;;;14.55;2.70;;;;;;;;;;4876602;29;20059;-79
2023/10/26 11:10:38;;;;;;;17.52;3.10;;;;;;;;;;4877379;29;20105;-80
2023/10/26 11:13:19;;;;;;;25.42;3.78;;;;;;;;;;4876065;29;20037;-79
2023/10/26 11:15:45;;;;;;;11.45;3.13;;;;;;;;;;4860344;29;20047;-81
2023/10/26 11:18:10;;;;;;;18.50;2.92;;;;;;;;;;4857423;29;20386;-79
2023/10/26 11:20:41;;;;;;;15.27;3.42;;;;;;;;;;4867306;29;20037;-79
2023/10/26 11:23:08;;;;;;;18.88;2.78;;;;;;;;;;4875040;29;20132;-80
2023/10/26 11:25:33;;;;;;;14.95;2.80;;;;;;;;;;4876997;29;20036;-79
2023/10/26 11:27:59;;;;;;;19.15;2.70;;;;;;;;;;4881420;29;20036;-78
2023/10/26 11:30:24;;;;;;;20.00;2.65;;;;;;;;;;4883002;29;20112;-79
2023/10/26 11:32:50;;;;;;;20.17;3.17;;;;;;;;;;4881106;29;20051;-82
2023/10/26 11:35:16;;;;;;;16.60;2.78;;;;;;;;;;4877604;29;20049;-80
2023/10/26 11:37:47;;;;;;;17.98;2.97;;;;;;;;;;4877222;29;20052;-80
2023/10/26 11:40:14;;;;;;;17.42;3.63;;;;;;;;;;4878600;29;20052;-81
2023/10/26 11:42:46;;;;;;;12.70;2.78;;;;;;;;;;4876983;29;20057;-79
2023/10/26 11:45:15;;;;;;;19.83;3.72;;;;;;;;;;4876632;29;20037;-80
2023/10/26 11:47:56;;;;;;;20.20;2.92;;;;;;;;;;4876371;29;20025;-80
2023/10/26 11:50:28;;;;;;;15.73;3.33;;;;;;;;;;4879147;29;20029;-80
2023/10/26 11:52:55;;;;;;;16.33;3.20;;;;;;;;;;4879332;29;20202;-80
2023/10/26 11:55:22;;;;;;;18.15;2.75;;;;;;;;;;4875969;29;20036;-80
2023/10/26 11:57:48;;;;;;;16.35;3.30;;;;;;;;;;4889481;29;20055;-79
2023/10/26 12:00:16;;;;;;;17.42;3.50;;;;;;;;;;4881765;29;20413;-82
2023/10/26 12:02:42;;;;;;;18.70;3.55;;;;;;;;;;4886907;29;20045;-80
2023/10/26 12:05:39;;;;;;;17.67;3.20;;;;;;;;;;4886744;29;20049;-79
2023/10/26 12:08:08;;;;;;;23.45;2.65;;;;;;;;;;4860476;29;20349;-80
2023/10/26 12:10:40;;;;;;;18.23;3.25;;;;;;;;;;4869990;29;20036;-80
2023/10/26 12:13:24;;;;;;;19.42;3.20;;;;;;;;;;4883655;29;20040;-79
2023/10/26 12:15:49;;;;;;;14.05;3.05;;;;;;;;;;4864842;29;20021;-79
2023/10/26 12:18:17;;;;;;;24.10;3.35;;;;;;;;;;4865721;29;20073;-79
2023/10/26 12:20:42;;;;;;;17.95;2.92;;;;;;;;;;4866878;29;20037;-81
2023/10/26 12:23:08;;;;;;;18.00;3.60;;;;;;;;;;4872201;29;20049;-80
2023/10/26 12:25:40;;;;;;;25.85;3.28;;;;;;;;;;4884648;29;20077;-82
2023/10/26 12:28:05;;;;;;;26.20;3.60;;;;;;;;;;4870393;29;20037;-80
2023/10/26 12:30:31;;;;;;;19.48;2.58;;;;;;;;;;4886041;29;20042;-81
2023/10/26 12:32:57;;;;;;;14.48;2.85;;;;;;;;;;4865531;29;20153;-80
2023/10/26 12:35:25;;;;;;;14.48;3.10;;;;;;;;;;4869237;29;20022;-84
2023/10/26 12:38:01;;;;;;;14.50;2.45;;;;;;;;;;4869381;29;20025;-80
2023/10/26 12:40:26;;;;;;;21.05;2.90;;;;;;;;;;4860156;29;20447;-78
2023/10/26 12:42:52;;;;;;;15.75;2.60;;;;;;;;;;4874912;29;20036;-78
2023/10/26 12:45:18;;;;;;;18.75;2.88;;;;;;;;;;4876237;29;20085;-79
2023/10/26 12:47:43;;;;;;;17.27;2.45;;;;;;;;;;4873640;29;20049;-78
2023/10/26 12:50:09;;;;;;;17.45;3.13;;;;;;;;;;4883204;29;20425;-80
2023/10/26 12:52:34;;;;;;;17.13;2.90;;;;;;;;;;4874647;29;20025;-80
2023/10/26 12:54:59;;;;;;;20.60;2.90;;;;;;;;;;4858473;29;20451;-80
2023/10/26 12:57:25;;;;;;;16.63;2.67;;;;;;;;;;4869300;29;20518;-79
2023/10/26 12:59:50;;;;;;;18.08;2.92;;;;;;;;;;4876587;29;20487;-80
2023/10/26 13:02:16;;;;;;;16.73;2.88;;;;;;;;;;4858822;29;20112;-80
2023/10/26 13:04:41;;;;;;;15.75;2.67;;;;;;;;;;4859505;29;20386;-80
2023/10/26 13:07:07;;;;;;;17.40;2.83;;;;;;;;;;4868027;29;20084;-80
2023/10/26 13:09:32;;;;;;;19.77;3.30;;;;;;;;;;4875191;29;20056;-80
2023/10/26 13:11:57;;;;;;;23.27;3.38;;;;;;;;;;4858221;29;20037;-80
2023/10/26 13:14:25;;;;;;;18.63;3.13;;;;;;;;;;4857982;29;20120;-81
2023/10/26 13:16:53;;;;;;;20.83;2.95;;;;;;;;;;4876400;29;20143;-82
2023/10/26 13:19:19;;;;;;;19.48;3.00;;;;;;;;;;4857410;29;20656;-79
2023/10/26 13:21:44;;;;;;;22.85;3.60;;;;;;;;;;4882128;29;20504;-79
2023/10/26 13:24:10;;;;;;;17.55;3.58;;;;;;;;;;4869689;29;20092;-78
2023/10/26 13:26:35;;;;;;;20.40;3.20;;;;;;;;;;4864200;29;20251;-78
2023/10/26 13:29:00;;;;;;;22.75;3.40;;;;;;;;;;4863005;29;20098;-76
2023/10/26 13:31:26;;;;;;;16.02;2.80;;;;;;;;;;4865963;29;20091;-76
2023/10/26 13:33:51;;;;;;;18.55;3.10;;;;;;;;;;4867320;29;20405;-77
2023/10/26 13:36:17;;;;;;;18.45;3.08;;;;;;;;;;4858900;29;20037;-77
2023/10/26 13:38:42;;;;;;;24.65;3.40;;;;;;;;;;4862872;29;20039;-77
2023/10/26 13:41:10;;;;;;;24.58;3.70;;;;;;;;;;4863606;29;20071;-77
2023/10/26 13:43:35;;;;;;;21.13;3.30;;;;;;;;;;4870870;29;20058;-77
2023/10/26 13:46:04;;;;;;;22.00;3.15;;;;;;;;;;4874987;29;20424;-77
2023/10/26 13:48:30;;;;;;;21.35;3.25;;;;;;;;;;4863084;29;20032;-77
2023/10/26 13:50:55;;;;;;;20.58;3.40;;;;;;;;;;4864695;29;20029;-76
2023/10/26 13:53:21;;;;;;;23.52;3.58;;;;;;;;;;4867327;29;20056;-77
2023/10/26 13:55:46;;;;;;;25.70;4.10;;;;;;;;;;4882329;29;20036;-77
2023/10/26 13:58:11;;;;;;;27.00;4.18;;;;;;;;;;4861443;29;20032;-76
2023/10/26 14:00:37;;;;;;;21.73;2.90;;;;;;;;;;4866455;29;20165;-77
2023/10/26 14:03:03;;;;;;;21.10;3.53;;;;;;;;;;4868364;29;20029;-77
2023/10/26 14:05:29;;;;;;;25.30;3.58;;;;;;;;;;4865614;29;20367;-76
2023/10/26 14:07:54;;;;;;;26.55;3.45;;;;;;;;;;4871817;29;20466;-76
2023/10/26 14:10:20;;;;;;;18.85;3.20;;;;;;;;;;4865058;29;20032;-76
2023/10/26 14:12:45;;;;;;;22.00;3.53;;;;;;;;;;4875037;29;20033;-76
2023/10/26 14:15:11;;;;;;;24.15;3.45;;;;;;;;;;4864130;29;20618;-77
2023/10/26 14:17:36;;;;;;;20.55;3.60;;;;;;;;;;4868917;29;20372;-76
2023/10/26 14:20:06;;;;;;;24.55;3.53;;;;;;;;;;4867784;29;20202;-78
2023/10/26 14:22:35;;;;;;;23.90;3.00;;;;;;;;;;4863123;29;20037;-77
2023/10/26 14:25:02;;;;;;;20.13;3.22;;;;;;;;;;4861674;29;20057;-77
2023/10/26 14:27:27;;;;;;;22.55;3.50;;;;;;;;;;4864218;29;20088;-78
2023/10/26 14:29:53;;;;;;;27.40;3.85;;;;;;;;;;4862584;29;20036;-78
2023/10/26 14:32:18;;;;;;;20.23;2.78;;;;;;;;;;4861849;29;20802;-77